createdAt,value
2018-09-28T00:00:28.297Z,995.22
2018-09-28T00:01:28.432Z,995.19
2018-09-28T00:02:28.570Z,995.18
2018-09-28T00:03:28.748Z,995.13
2018-09-28T00:04:28.885Z,995.12
2018-09-28T00:05:29.030Z,995.07
2018-09-28T00:06:29.170Z,995.07
2018-09-28T00:07:29.330Z,995.09
2018-09-28T00:08:29.459Z,995.09
2018-09-28T00:09:29.604Z,995.12
2018-09-28T00:10:29.749Z,995.13
2018-09-28T00:11:29.889Z,995.08
2018-09-28T00:12:30.034Z,995.12
2018-09-28T00:13:30.177Z,995.21
2018-09-28T00:14:30.318Z,995.19
2018-09-28T00:15:30.459Z,995.21
2018-09-28T00:16:30.602Z,995.24
2018-09-28T00:17:30.746Z,995.24
2018-09-28T00:18:30.890Z,995.24
2018-09-28T00:19:31.037Z,995.22
2018-09-28T00:20:31.197Z,995.21
2018-09-28T00:21:31.349Z,995.20
2018-09-28T00:22:31.482Z,995.17
2018-09-28T00:23:31.654Z,995.13
2018-09-28T00:24:31.798Z,995.13
2018-09-28T00:25:31.953Z,995.11
2018-09-28T00:26:32.097Z,995.12
2018-09-28T00:27:32.238Z,995.14
2018-09-28T00:28:32.381Z,995.12
2018-09-28T00:29:32.531Z,995.11
2018-09-28T00:30:32.669Z,995.10
2018-09-28T00:31:32.810Z,995.09
2018-09-28T00:32:32.955Z,995.12
2018-09-28T00:33:33.109Z,995.13
2018-09-28T00:34:33.258Z,995.09
2018-09-28T00:35:33.399Z,995.11
2018-09-28T00:36:33.544Z,995.10
2018-09-28T00:37:33.686Z,995.09
2018-09-28T00:38:33.881Z,995.10
2018-09-28T00:39:34.809Z,995.06
2018-09-28T00:40:34.148Z,995.06
2018-09-28T00:41:34.306Z,995.10
2018-09-28T00:42:34.442Z,995.06
2018-09-28T00:43:34.602Z,995.07
2018-09-28T00:44:34.741Z,995.05
2018-09-28T00:45:35.813Z,995.00
2018-09-28T00:46:35.063Z,995.01
2018-09-28T00:47:35.210Z,994.96
2018-09-28T00:48:35.354Z,994.97
2018-09-28T00:49:35.537Z,995.00
2018-09-28T00:50:35.676Z,994.97
2018-09-28T00:51:35.822Z,995.00
2018-09-28T00:52:35.965Z,994.99
2018-09-28T00:53:36.105Z,994.94
2018-09-28T00:54:36.244Z,994.97
2018-09-28T00:55:36.394Z,994.98
2018-09-28T00:56:36.531Z,994.96
2018-09-28T00:57:36.675Z,994.93
2018-09-28T00:58:36.813Z,994.93
2018-09-28T00:59:36.956Z,994.90
2018-09-28T01:00:37.095Z,994.89
2018-09-28T01:01:37.249Z,994.90
2018-09-28T01:02:37.387Z,994.88
2018-09-28T01:03:37.529Z,994.89
2018-09-28T01:04:37.672Z,994.89
2018-09-28T01:05:37.820Z,994.89
2018-09-28T01:06:37.959Z,994.86
2018-09-28T01:07:38.104Z,994.90
2018-09-28T01:08:38.250Z,994.90
2018-09-28T01:09:38.390Z,994.90
2018-09-28T01:10:38.531Z,994.91
2018-09-28T01:11:38.674Z,994.90
2018-09-28T01:12:38.818Z,994.94
2018-09-28T01:13:39.814Z,994.90
2018-09-28T01:14:39.125Z,994.94
2018-09-28T01:15:39.265Z,994.89
2018-09-28T01:16:40.321Z,994.86
2018-09-28T01:17:39.534Z,994.91
2018-09-28T01:18:39.677Z,994.87
2018-09-28T01:19:39.805Z,994.91
2018-09-28T01:20:39.963Z,994.94
2018-09-28T01:21:40.154Z,994.91
2018-09-28T01:22:40.255Z,994.89
2018-09-28T01:23:40.397Z,994.88
2018-09-28T01:24:40.534Z,994.90
2018-09-28T01:25:40.701Z,994.89
2018-09-28T01:26:40.852Z,994.93
2018-09-28T01:27:41.002Z,994.86
2018-09-28T01:28:41.176Z,994.86
2018-09-28T01:29:41.323Z,994.84
2018-09-28T01:30:41.467Z,994.83
2018-09-28T01:31:41.620Z,994.79
2018-09-28T01:32:41.760Z,994.77
2018-09-28T01:33:41.905Z,994.79
2018-09-28T01:34:42.072Z,994.79
2018-09-28T01:35:42.222Z,994.78
2018-09-28T01:36:42.363Z,994.76
2018-09-28T01:37:42.510Z,994.76
2018-09-28T01:38:42.674Z,994.72
2018-09-28T01:39:42.807Z,994.69
2018-09-28T01:40:42.953Z,994.71
2018-09-28T01:41:43.149Z,994.69
2018-09-28T01:42:43.262Z,994.67
2018-09-28T01:43:43.408Z,994.66
2018-09-28T01:44:43.544Z,994.66
2018-09-28T01:45:43.713Z,994.70
2018-09-28T01:46:43.851Z,994.69
2018-09-28T01:47:43.998Z,994.73
2018-09-28T01:48:44.138Z,994.74
2018-09-28T01:49:44.283Z,994.72
2018-09-28T01:50:44.428Z,994.75
2018-09-28T01:51:44.570Z,994.74
2018-09-28T01:52:44.721Z,994.75
2018-09-28T01:53:44.867Z,994.71
2018-09-28T01:54:45.008Z,994.70
2018-09-28T01:55:45.148Z,994.72
2018-09-28T01:56:45.294Z,994.70
2018-09-28T01:57:45.431Z,994.69
2018-09-28T01:58:45.572Z,994.70
2018-09-28T01:59:45.719Z,994.69
2018-09-28T02:00:45.859Z,994.66
2018-09-28T02:01:46.000Z,994.71
2018-09-28T02:02:46.205Z,994.66
2018-09-28T02:03:46.225Z,994.70
2018-09-28T02:04:46.369Z,994.71
2018-09-28T02:05:46.512Z,994.71
2018-09-28T02:06:46.662Z,994.73
2018-09-28T02:07:47.815Z,994.73
2018-09-28T02:08:46.987Z,994.77
2018-09-28T02:09:47.128Z,994.77
2018-09-28T02:10:47.321Z,994.76
2018-09-28T02:11:47.460Z,994.80
2018-09-28T02:12:47.604Z,994.75
2018-09-28T02:13:47.748Z,994.68
2018-09-28T02:14:47.925Z,994.70
2018-09-28T02:15:48.083Z,994.78
2018-09-28T02:16:48.192Z,994.76
2018-09-28T02:17:48.330Z,994.73
2018-09-28T02:18:48.487Z,994.74
2018-09-28T02:19:48.632Z,994.70
2018-09-28T02:20:48.793Z,994.68
2018-09-28T02:21:48.922Z,994.67
2018-09-28T02:22:49.164Z,994.69
2018-09-28T02:23:49.133Z,994.73
2018-09-28T02:24:49.275Z,994.72
2018-09-28T02:25:49.457Z,994.73
2018-09-28T02:26:49.591Z,994.72
2018-09-28T02:27:49.737Z,994.75
2018-09-28T02:28:49.902Z,994.76
2018-09-28T02:29:50.040Z,994.74
2018-09-28T02:30:50.178Z,994.73
2018-09-28T02:31:50.324Z,994.83
2018-09-28T02:32:50.476Z,994.77
2018-09-28T02:33:50.614Z,994.76
2018-09-28T02:34:50.817Z,994.72
2018-09-28T02:35:50.886Z,994.77
2018-09-28T02:36:51.030Z,994.74
2018-09-28T02:37:51.166Z,994.76
2018-09-28T02:38:51.310Z,994.74
2018-09-28T02:39:51.452Z,994.75
2018-09-28T02:40:51.595Z,994.70
2018-09-28T02:41:51.736Z,994.75
2018-09-28T02:42:51.877Z,994.75
2018-09-28T02:43:52.018Z,994.75
2018-09-28T02:44:52.177Z,994.79
2018-09-28T02:45:52.307Z,994.78
2018-09-28T02:46:52.440Z,994.82
2018-09-28T02:47:52.606Z,994.83
2018-09-28T02:48:52.750Z,994.84
2018-09-28T02:49:52.895Z,994.81
2018-09-28T02:50:53.041Z,994.77
2018-09-28T02:51:53.175Z,994.75
2018-09-28T02:52:53.319Z,994.76
2018-09-28T02:53:53.461Z,994.75
2018-09-28T02:54:53.599Z,994.80
2018-09-28T02:55:53.740Z,994.75
2018-09-28T02:56:53.928Z,994.80
2018-09-28T02:57:54.028Z,994.80
2018-09-28T02:58:54.170Z,994.78
2018-09-28T02:59:54.318Z,994.77
2018-09-28T03:00:54.480Z,994.76
2018-09-28T03:01:54.618Z,994.78
2018-09-28T03:02:54.764Z,994.73
2018-09-28T03:03:55.833Z,994.67
2018-09-28T03:04:55.016Z,994.68
2018-09-28T03:05:55.153Z,994.66
2018-09-28T03:06:55.298Z,994.70
2018-09-28T03:07:55.434Z,994.68
2018-09-28T03:08:55.613Z,994.70
2018-09-28T03:09:55.737Z,994.71
2018-09-28T03:10:55.878Z,994.70
2018-09-28T03:11:56.018Z,994.68
2018-09-28T03:12:56.186Z,994.68
2018-09-28T03:13:56.302Z,994.66
2018-09-28T03:14:56.450Z,994.66
2018-09-28T03:15:56.605Z,994.66
2018-09-28T19:52:45.052Z,1001.15
2018-09-28T19:53:45.191Z,1001.12
2018-09-28T19:54:45.334Z,1001.11
2018-09-28T19:55:45.529Z,1001.09
2018-09-28T19:56:45.594Z,1001.10
2018-09-28T19:57:45.753Z,1001.11
2018-09-28T19:58:45.872Z,1001.12
2018-09-28T19:59:46.018Z,1001.09
2018-09-28T20:00:46.158Z,1001.11
2018-09-28T20:01:46.295Z,1001.14
2018-09-28T20:02:46.430Z,1001.19
2018-09-28T20:03:46.599Z,1001.17
2018-09-28T20:04:46.707Z,1001.20
2018-09-28T20:05:47.441Z,1001.23
2018-09-28T20:06:46.982Z,1001.23
2018-09-28T20:07:47.091Z,1001.26
2018-09-28T20:08:47.230Z,1001.30
2018-09-28T20:09:47.372Z,1001.32
2018-09-28T20:10:47.529Z,1001.33
2018-09-28T20:11:47.665Z,1001.37
2018-09-28T20:12:47.793Z,1001.38
2018-09-28T20:13:47.933Z,1001.36
2018-09-28T20:14:48.072Z,1001.36
2018-09-28T20:15:48.207Z,1001.40
2018-09-28T20:16:48.361Z,1001.44
2018-09-28T20:17:48.498Z,1001.42
2018-09-28T20:18:48.644Z,1001.42
2018-09-28T20:19:48.763Z,1001.46
2018-09-28T20:20:48.903Z,1001.45
2018-09-28T20:21:49.034Z,1001.48
2018-09-28T20:22:49.185Z,1001.47
2018-09-28T20:23:49.305Z,1001.46
2018-09-28T20:24:49.443Z,1001.48
2018-09-28T20:25:49.652Z,1001.49
2018-09-28T20:26:50.452Z,1001.51
2018-09-28T20:29:22.179Z,1001.53
2018-09-28T20:30:22.314Z,1001.57
2018-09-28T20:31:22.459Z,1001.55
2018-09-28T20:32:22.592Z,1001.54
2018-09-28T20:33:22.725Z,1001.59
2018-09-28T20:34:22.857Z,1001.53
2018-09-28T20:35:22.993Z,1001.53
2018-09-28T20:36:23.126Z,1001.53
2018-09-28T20:37:23.259Z,1001.56
2018-09-28T20:38:23.395Z,1001.56
2018-09-28T20:39:23.526Z,1001.56
2018-09-28T20:40:23.667Z,1001.55
2018-09-28T20:41:23.805Z,1001.54
2018-09-28T20:42:23.937Z,1001.54
2018-09-28T20:43:24.072Z,1001.59
2018-09-28T20:44:24.204Z,1001.62
2018-09-28T20:45:24.332Z,1001.61
2018-09-28T20:46:24.477Z,1001.63
2018-09-28T20:47:24.613Z,1001.61
2018-09-28T20:48:24.749Z,1001.63
2018-09-28T20:49:24.891Z,1001.67
2018-09-28T20:50:25.022Z,1001.69
2018-09-28T20:51:25.155Z,1001.69
2018-09-28T20:52:25.284Z,1001.67
2018-09-28T20:53:25.428Z,1001.66
2018-09-28T20:54:25.562Z,1001.64
2018-09-28T20:55:25.707Z,1001.67
2018-09-28T20:56:25.830Z,1001.70
2018-09-28T20:57:25.967Z,1001.69
2018-09-28T20:58:26.087Z,1001.76
2018-09-28T20:59:26.240Z,1001.79
2018-09-28T21:00:26.378Z,1001.83
2018-09-28T21:01:26.515Z,1001.84
2018-09-28T21:02:26.662Z,1001.83
2018-09-28T21:03:26.797Z,1001.82
2018-09-28T21:04:26.928Z,1001.81
2018-09-28T21:05:27.064Z,1001.81
2018-09-28T21:06:27.202Z,1001.81
2018-09-28T21:07:27.367Z,1001.87
2018-09-28T21:08:28.400Z,1001.88
2018-09-28T21:11:00.319Z,1001.91
2018-09-28T21:12:00.439Z,1001.89
2018-09-28T21:13:00.568Z,1001.86
2018-09-28T21:14:00.701Z,1001.86
2018-09-28T21:15:00.853Z,1001.88
2018-09-28T21:16:00.973Z,1001.88
2018-09-28T21:17:01.108Z,1001.82
2018-09-28T21:18:01.242Z,1001.86
2018-09-28T21:19:01.387Z,1001.88
2018-09-28T21:20:01.508Z,1001.89
2018-09-28T21:21:01.636Z,1001.90
2018-09-28T21:22:01.768Z,1001.89
2018-09-28T21:23:01.997Z,1001.86
2018-09-28T21:24:02.005Z,1001.88
2018-09-28T21:25:02.139Z,1001.90
2018-09-28T21:26:02.272Z,1001.87
2018-09-28T21:27:02.427Z,1001.88
2018-09-28T21:28:02.557Z,1001.90
2018-09-28T21:29:02.753Z,1001.91
2018-09-28T21:30:02.825Z,1001.87
2018-09-28T21:31:02.972Z,1001.86
2018-09-28T21:32:03.099Z,1001.83
2018-09-28T21:33:03.234Z,1001.81
2018-09-28T21:34:03.369Z,1001.83
2018-09-28T21:35:03.511Z,1001.86
2018-09-28T21:36:03.634Z,1001.91
2018-09-28T21:37:03.767Z,1001.93
2018-09-28T21:38:03.899Z,1001.91
2018-09-28T21:39:04.047Z,1001.90
2018-09-28T21:40:04.192Z,1001.93
2018-09-28T21:41:04.330Z,1001.98
2018-09-28T21:42:04.469Z,1002.01
2018-09-28T21:43:04.625Z,1002.03
2018-09-28T21:44:04.743Z,1002.09
2018-09-28T21:45:04.883Z,1002.09
2018-09-28T21:46:05.013Z,1002.13
2018-09-28T21:47:05.171Z,1002.17
2018-09-28T21:48:06.560Z,1002.22
2018-09-28T21:49:05.590Z,1002.22
2018-09-28T21:50:05.530Z,1002.24
2018-09-28T21:51:06.729Z,1002.24
2018-09-28T21:52:05.677Z,1002.25
2018-09-28T21:53:05.807Z,1002.22
2018-09-28T21:54:05.934Z,1002.22
2018-09-28T21:55:06.075Z,1002.17
2018-09-28T21:56:06.200Z,1002.16
2018-09-28T21:57:06.344Z,1002.17
2018-09-28T21:58:06.487Z,1002.21
2018-09-28T21:59:06.621Z,1002.22
2018-09-28T22:00:06.759Z,1002.20
2018-09-28T22:01:06.905Z,1002.19
2018-09-28T22:02:07.041Z,1002.23
2018-09-28T22:03:07.178Z,1002.25
2018-09-28T22:04:07.305Z,1002.21
2018-09-28T22:05:07.433Z,1002.20
2018-09-28T22:06:08.103Z,1002.17
2018-09-28T22:07:07.761Z,1002.22
2018-09-28T22:08:07.891Z,1002.21
2018-09-28T22:09:08.589Z,1002.19
2018-09-28T22:10:08.130Z,1002.18
2018-09-28T22:11:08.271Z,1002.19
2018-09-28T22:12:08.401Z,1002.18
2018-09-28T22:13:08.548Z,1002.14
2018-09-28T22:14:08.720Z,1002.13
2018-09-28T22:15:08.805Z,1002.15
2018-09-28T22:16:08.940Z,1002.17
2018-09-28T22:17:09.075Z,1002.19
2018-09-28T22:18:09.209Z,1002.19
2018-09-28T22:19:09.343Z,1002.17
2018-09-28T22:20:09.472Z,1002.26
2018-09-28T22:21:09.599Z,1002.30
2018-09-28T22:22:09.732Z,1002.27
2018-09-28T22:23:09.867Z,1002.29
2018-09-28T22:24:10.006Z,1002.33
2018-09-28T22:25:10.134Z,1002.33
2018-09-28T22:26:10.282Z,1002.35
2018-09-28T22:27:10.412Z,1002.35
2018-09-28T22:28:10.547Z,1002.35
2018-09-28T22:29:10.689Z,1002.32
2018-09-28T22:30:10.823Z,1002.31
2018-09-28T22:31:10.955Z,1002.31
2018-09-28T22:32:11.087Z,1002.35
2018-09-28T22:33:11.227Z,1002.35
2018-09-28T22:34:11.354Z,1002.32
2018-09-28T22:35:11.496Z,1002.33
2018-09-28T22:36:11.638Z,1002.30
2018-09-28T22:37:11.772Z,1002.33
2018-09-28T22:38:11.905Z,1002.33
2018-09-28T22:39:12.041Z,1002.29
2018-09-28T22:40:12.173Z,1002.28
2018-09-28T22:41:12.304Z,1002.26
2018-09-28T22:42:12.442Z,1002.24
2018-09-28T22:43:12.572Z,1002.25
2018-09-28T22:44:12.709Z,1002.27
2018-09-28T22:45:12.897Z,1002.26
2018-09-28T22:46:13.029Z,1002.24
2018-09-28T22:47:13.159Z,1002.20
2018-09-28T22:48:13.292Z,1002.21
2018-09-28T22:49:13.458Z,1002.20
2018-09-28T22:50:13.596Z,1002.21
2018-09-28T22:51:13.728Z,1002.20
2018-09-28T22:52:13.861Z,1002.23
2018-09-28T22:53:14.005Z,1002.16
2018-09-28T22:54:14.133Z,1002.23
2018-09-28T22:55:14.270Z,1002.29
2018-09-28T22:56:14.400Z,1002.24
2018-09-28T22:57:14.541Z,1002.25
2018-09-28T22:58:14.676Z,1002.28
2018-09-28T22:59:14.817Z,1002.31
2018-09-28T23:00:14.974Z,1002.33
2018-09-28T23:01:15.098Z,1002.31
2018-09-28T23:02:15.236Z,1002.34
2018-09-28T23:03:15.362Z,1002.33
2018-09-28T23:04:15.493Z,1002.34
2018-09-28T23:05:15.629Z,1002.38
2018-09-28T23:06:15.765Z,1002.40
2018-09-28T23:07:15.956Z,1002.45
2018-09-28T23:08:15.966Z,1002.42
2018-09-28T23:09:16.092Z,1002.38
2018-09-28T23:10:16.232Z,1002.43
2018-09-28T23:11:16.358Z,1002.43
2018-09-28T23:12:16.494Z,1002.43
2018-09-28T23:13:16.625Z,1002.46
2018-09-28T23:14:16.803Z,1002.47
2018-09-28T23:15:16.913Z,1002.50
2018-09-28T23:16:17.040Z,1002.48
2018-09-28T23:17:17.181Z,1002.51
2018-09-28T23:18:17.341Z,1002.52
2018-09-28T23:19:17.464Z,1002.50
2018-09-28T23:20:17.592Z,1002.52
2018-09-28T23:21:17.757Z,1002.52
2018-09-28T23:22:17.919Z,1002.47
2018-09-28T23:23:18.028Z,1002.46
2018-09-28T23:24:18.190Z,1002.48
2018-09-28T23:25:18.358Z,1002.45
2018-09-28T23:26:18.479Z,1002.46
2018-09-28T23:27:18.615Z,1002.50
2018-09-28T23:28:18.744Z,1002.48
2018-09-28T23:29:18.922Z,1002.48
2018-09-28T23:30:19.024Z,1002.45
2018-09-28T23:31:19.161Z,1002.42
2018-09-28T23:32:19.303Z,1002.42
2018-09-28T23:33:19.434Z,1002.44
2018-09-28T23:34:19.573Z,1002.48
2018-09-28T23:35:19.704Z,1002.47
2018-09-28T23:36:19.839Z,1002.45
2018-09-28T23:37:19.979Z,1002.45
2018-09-28T23:38:20.103Z,1002.42
2018-09-28T23:39:20.231Z,1002.42
2018-09-28T23:40:20.375Z,1002.45
2018-09-28T23:41:20.489Z,1002.45
2018-09-28T23:42:20.629Z,1002.46
2018-09-28T23:43:20.769Z,1002.44
2018-09-28T23:44:20.900Z,1002.48
2018-09-28T23:45:21.028Z,1002.45
2018-09-28T23:46:21.164Z,1002.49
2018-09-28T23:47:21.293Z,1002.48
2018-09-28T23:48:21.426Z,1002.49
2018-09-28T23:49:21.556Z,1002.56
2018-09-28T23:50:21.693Z,1002.55
2018-09-28T23:51:21.826Z,1002.52
2018-09-28T23:52:21.963Z,1002.53
2018-09-28T23:53:22.149Z,1002.54
2018-09-28T23:54:22.289Z,1002.55
2018-09-28T23:55:22.426Z,1002.55
2018-09-28T23:56:22.558Z,1002.50
2018-09-28T23:57:22.691Z,1002.53
2018-09-28T23:58:22.827Z,1002.49
2018-09-28T23:59:22.959Z,1002.51
